الصفحة الرئيسية
METAR-TAF:

METAR-TAF

مطار :

مطار البرمة

El Borma, تونس

دائرة عرض: 31-41N, خط طول: 009-10E, ارتفاع: 258 متر

مراقبة الطقس الحالي

تاريخ ووقت الإصدار 1ساعة و 14 دقيقة قبل الساعة 16:00UTC
ريح 18 عقدة من الشمال
درجة الحرارة 16°درجة مئوية
الرطوبة 51%
ضغط 1021 hPa
الرؤية 10 كم أو أكثر
غيوم متفرقة على ارتفاع 2000 قدم

METAR: DTTR 211600Z 36018KT 9999 SCT020 16/06 Q1021

زمن: 18:14 (17:14 UTC)

توقعات

تاريخ ووقت الإصدار 2ساعات و 14 دقيقة قبل الساعة 15:00UTC
التوقعات صالحة من21 الساعة 16 UTC إلى 22 الساعة 01 UTC
ريح 17 عقدة من الشمال
الرؤية 10 كم أو أكثر
غيوم متفرقة على ارتفاع 2000 قدم
غيوم قليلة على ارتفاع 3000 قدم
أصبح
من 21 الساعة 16 UTC إلى 21 الساعة 18 UTC
ريح 7 عقدة من الشمال

TAF: DTTR 211500Z 2116/2201 36017KT 9999 SCT020 FEW030 BECMG 2116/2118 35007KT

أرصاد الطقس والتوقعات من أكثر من 4000 مطار (تقارير الطقس للمطار METAR والتنبؤ بالطقس بالمطارTAF).

المحطات المتاحة هي النقط الصفراء والحمراء على الخريطة.

حرك المؤشر فوق النقطة لمعرفة اسم المحطة.

ثم انقر لمعرفة أرصاد وتوقعات الطقس.

لتغيير الخارطة: اضغط على الأزرار الخضراء مع رمز الصليب الأسود للتكبير. على الزر الأخضر مع شرطة للتصغير، أو على الأسهم الخضراء للخرائط المجاورة.


METAR-TAF: